Mesa.AZweather.com - Mesa, AZ
   Red Mountain Frwy and University Dr., El 1518 ft.
        --- Friday  June 7, 2019 ---
 
 High Temperature ..  101F at 16:03
 Low Temperature ...  72F at 05:27
 
 High Humidity .....  32% at 02:37
 Low Humidity ......  13% at 16:37
 
 Rainfall Total ....  0.00 in.
 
 High Wind Speed ... ---
                     
 
 High Barometer ....  29.9 at 07:05
 Low Barometer .....  29.74 at 17:07
 
Dew Point    High .... 49   Low ..... 34
 
 
 Time   Temp  Humi  Rain     Baro  DewPt  Wind
00:00,  81F, 28%, 0.00 in, 29.86, 45F, ---
00:30,  80F, 28%, 0.00 in, 29.87, 45F, ---
01:00,  79F, 28%, 0.00 in, 29.87, 43F, ---
01:30,  77F, 28%, 0.00 in, 29.87, 41F, ---
02:00,  75F, 31%, 0.00 in, 29.87, 43F, ---
02:30,  74F, 31%, 0.00 in, 29.88, 41F, ---
03:00,  74F, 32%, 0.00 in, 29.87, 42F, ---
03:30,  74F, 32%, 0.00 in, 29.87, 42F, ---
04:00,  75F, 31%, 0.00 in, 29.87, 43F, ---
04:30,  74F, 32%, 0.00 in, 29.87, 42F, ---
05:00,  73F, 32%, 0.00 in, 29.88, 42F, ---
05:30,  72F, 32%, 0.00 in, 29.89, 40F, ---
06:00,  72F, 32%, 0.00 in, 29.89, 40F, ---
06:30,  73F, 31%, 0.00 in, 29.88, 41F, ---
07:00,  77F, 27%, 0.00 in, 29.89, 40F, ---
07:30,  81F, 23%, 0.00 in, 29.89, 39F, ---
08:00,  85F, 19%, 0.00 in, 29.90, 38F, ---
08:30,  86F, 18%, 0.00 in, 29.89, 38F, ---
09:00,  87F, 17%, 0.00 in, 29.89, 38F, ---
09:30,  88F, 17%, 0.00 in, 29.89, 38F, ---
10:00,  89F, 18%, 0.00 in, 29.89, 41F, ---
10:30,  90F, 19%, 0.00 in, 29.89, 42F, ---
11:00,  92F, 19%, 0.00 in, 29.88, 43F, ---
11:30,  93F, 19%, 0.00 in, 29.88, 45F, ---
12:00,  93F, 20%, 0.00 in, 29.86, 46F, ---
12:30,  94F, 20%, 0.00 in, 29.84, 46F, ---
13:00,  95F, 20%, 0.00 in, 29.84, 48F, ---
13:30,  96F, 19%, 0.00 in, 29.83, 48F, ---
14:00,  98F, 19%, 0.00 in, 29.81, 49F, ---
14:30,  97F, 18%, 0.00 in, 29.80, 46F, ---
15:00,  99F, 17%, 0.00 in, 29.79, 46F, ---
15:30,  100F, 16%, 0.00 in, 29.77, 46F, ---
16:00,  100F, 15%, 0.00 in, 29.76, 44F, ---
16:30,  100F, 14%, 0.00 in, 29.76, 43F, ---
17:00,  99F, 13%, 0.00 in, 29.75, 39F, ---
17:30,  99F, 15%, 0.00 in, 29.74, 43F, ---
18:00,  98F, 15%, 0.00 in, 29.75, 43F, ---
18:30,  97F, 15%, 0.00 in, 29.75, 42F, ---
19:00,  96F, 15%, 0.00 in, 29.75, 42F, ---
19:30,  94F, 17%, 0.00 in, 29.77, 42F, ---
20:00,  92F, 16%, 0.00 in, 29.77, 39F, ---
20:30,  91F, 16%, 0.00 in, 29.79, 39F, ---
21:00,  89F, 15%, 0.00 in, 29.79, 36F, ---
21:30,  88F, 15%, 0.00 in, 29.81, 34F, ---
22:00,  87F, 16%, 0.00 in, 29.83, 36F, ---
22:30,  86F, 16%, 0.00 in, 29.82, 35F, ---
23:00,  84F, 18%, 0.00 in, 29.83, 36F, ---
23:30,  80F, 22%, 0.00 in, 29.84, 38F, ---
23:59,  78F, 23%, 0.00 in, 29.83, 38F, ---